Time;durP1;ratioP1;P1;durP2;ratioP2;P2;SDS_P1;SDS_P2;PMS_P1;PMS_P2;Temp;Humidity;BMP_temperature;BMP_pressure;BME280_temperature;BME280_humidity;BME280_pressure;Samples;Min_cycle;Max_cycle;Signal;HPM_P1;HPM_P2
2021/06/02 00:00:06;;;;;;;;;;;12.50;65.40;;;;;;5012597;28;19939;-65
2021/06/02 00:02:32;;;;;;;;;;;12.50;65.40;;;;;;5011835;28;19918;-67
2021/06/02 00:04:58;;;;;;;;;;;12.50;65.50;;;;;;5011058;28;19925;-66
2021/06/02 00:07:25;;;;;;;;;;;12.50;65.70;;;;;;5011825;28;19921;-67
2021/06/02 00:09:51;;;;;;;;;;;12.40;65.80;;;;;;5012016;28;20336;-66
2021/06/02 00:12:17;;;;;;;;;;;12.40;65.80;;;;;;5010857;28;19917;-66
2021/06/02 00:14:43;;;;;;;;;;;12.40;66.00;;;;;;5010129;28;19918;-66
2021/06/02 00:17:09;;;;;;;;;;;12.40;66.20;;;;;;5010685;28;20424;-65
2021/06/02 00:19:36;;;;;;;;;;;12.40;66.20;;;;;;5011844;28;19921;-66
2021/06/02 00:22:02;;;;;;;;;;;12.40;66.30;;;;;;5010517;28;19940;-65
2021/06/02 00:24:28;;;;;;;;;;;12.30;66.90;;;;;;5011692;28;20384;-65
2021/06/02 00:26:55;;;;;;;;;;;12.30;66.40;;;;;;5011794;28;19956;-67
2021/06/02 00:29:24;;;;;;;;;;;12.30;66.50;;;;;;5011844;28;20452;-66
2021/06/02 00:31:49;;;;;;;;;;;12.30;66.60;;;;;;5011983;28;19949;-65
2021/06/02 00:34:15;;;;;;;;;;;12.20;66.80;;;;;;5011222;28;19956;-65
2021/06/02 00:36:42;;;;;;;;;;;12.20;67.00;;;;;;5010582;28;19948;-66
2021/06/02 00:39:08;;;;;;;;;;;12.20;67.20;;;;;;5011340;28;19979;-65
2021/06/02 00:41:35;;;;;;;;;;;12.20;67.30;;;;;;5011875;28;20374;-66
2021/06/02 00:44:01;;;;;;;;;;;12.20;67.50;;;;;;5011535;28;20425;-66
2021/06/02 00:46:27;;;;;;;;;;;12.20;67.70;;;;;;5010206;28;19917;-67
2021/06/02 00:48:52;;;;;;;;;;;12.10;67.70;;;;;;5011534;28;20006;-65
2021/06/02 00:51:18;;;;;;;;;;;12.20;67.90;;;;;;5011354;28;19925;-68
2021/06/02 00:53:44;;;;;;;;;;;12.10;68.00;;;;;;5026435;28;19917;-66
2021/06/02 00:56:10;;;;;;;;;;;12.10;68.10;;;;;;5011736;28;19921;-65
2021/06/02 00:58:42;;;;;;;;;;;12.20;68.30;;;;;;5011188;28;19925;-65
2021/06/02 01:01:08;;;;;;;;;;;12.20;68.50;;;;;;5014296;28;20400;-66
2021/06/02 01:03:35;;;;;;;;;;;12.20;68.50;;;;;;5013769;28;19932;-65
2021/06/02 01:06:00;;;;;;;;;;;12.20;68.70;;;;;;5015157;28;20389;-66
2021/06/02 01:08:28;;;;;;;;;;;12.20;68.90;;;;;;5014263;28;19949;-66
2021/06/02 01:10:54;;;;;;;;;;;12.20;69.00;;;;;;5015166;28;19921;-66
2021/06/02 01:13:20;;;;;;;;;;;12.30;69.20;;;;;;5015403;28;19921;-66
2021/06/02 01:15:47;;;;;;;;;;;12.30;69.30;;;;;;5014343;28;19944;-66
2021/06/02 01:18:13;;;;;;;;;;;12.40;69.40;;;;;;5014746;28;20308;-66
2021/06/02 01:20:39;;;;;;;;;;;12.40;69.30;;;;;;5030427;28;19936;-66
2021/06/02 01:23:05;;;;;;;;;;;12.50;69.40;;;;;;5013451;28;20000;-66
2021/06/02 01:25:31;;;;;;;;;;;12.60;69.40;;;;;;5015314;28;19956;-66
2021/06/02 01:27:56;;;;;;;;;;;12.60;69.40;;;;;;5015372;28;19953;-66
2021/06/02 01:30:22;;;;;;;;;;;12.60;69.50;;;;;;5014644;28;19922;-65
2021/06/02 01:33:03;;;;;;;;;;;12.60;69.60;;;;;;5014839;28;19923;-66
2021/06/02 01:35:38;;;;;;;;;;;12.60;69.50;;;;;;5014421;28;19968;-65
2021/06/02 01:38:15;;;;;;;;;;;12.60;69.40;;;;;;5014824;28;20009;-66
2021/06/02 01:40:59;;;;;;;;;;;12.60;69.50;;;;;;5013184;28;19918;-66
2021/06/02 01:43:43;;;;;;;;;;;12.60;69.50;;;;;;5012759;28;19922;-70
2021/06/02 01:46:12;;;;;;;;;;;12.60;69.50;;;;;;5014936;28;20389;-66
2021/06/02 01:48:37;;;;;;;;;;;12.60;69.50;;;;;;5014229;28;20348;-66
2021/06/02 01:51:03;;;;;;;;;;;12.50;69.40;;;;;;5014659;28;19918;-66
2021/06/02 01:53:48;;;;;;;;;;;12.50;69.50;;;;;;5013128;28;19917;-65
2021/06/02 01:56:32;;;;;;;;;;;12.50;69.50;;;;;;5014265;28;19917;-65
2021/06/02 01:59:03;;;;;;;;;;;12.40;69.60;;;;;;5012988;28;19937;-65
2021/06/02 02:01:48;;;;;;;;;;;12.40;69.60;;;;;;5012930;28;20349;-66
2021/06/02 02:04:32;;;;;;;;;;;12.40;69.70;;;;;;5012212;28;19929;-66
2021/06/02 02:07:30;;;;;;;;;;;12.30;69.60;;;;;;5014330;28;20404;-65
2021/06/02 02:10:11;;;;;;;;;;;12.30;70.20;;;;;;4991129;28;20008;-66
2021/06/02 02:12:36;;;;;;;;;;;12.10;69.80;;;;;;5013336;28;19928;-65
2021/06/02 02:15:02;;;;;;;;;;;12.10;69.90;;;;;;5013862;28;19917;-66
2021/06/02 02:17:37;;;;;;;;;;;12.00;70.10;;;;;;5014183;28;20401;-65
2021/06/02 02:20:15;;;;;;;;;;;12.00;70.30;;;;;;5013431;28;19925;-65
2021/06/02 02:23:01;;;;;;;;;;;11.90;70.40;;;;;;5014011;28;19925;-65
2021/06/02 02:25:33;;;;;;;;;;;11.80;70.50;;;;;;5012391;28;20278;-66
2021/06/02 02:27:58;;;;;;;;;;;11.80;70.70;;;;;;5013978;28;19918;-66
2021/06/02 02:30:30;;;;;;;;;;;11.70;70.90;;;;;;5013400;28;19951;-67
2021/06/02 02:33:14;;;;;;;;;;;11.70;71.00;;;;;;5013533;28;20035;-65
2021/06/02 02:35:40;;;;;;;;;;;11.70;71.30;;;;;;5013465;28;19918;-67
2021/06/02 02:38:24;;;;;;;;;;;11.70;71.40;;;;;;5013873;28;19924;-67
2021/06/02 02:40:53;;;;;;;;;;;11.70;71.60;;;;;;5013324;28;19917;-66
2021/06/02 02:43:37;;;;;;;;;;;11.70;71.80;;;;;;5013340;28;19917;-66
2021/06/02 02:46:07;;;;;;;;;;;11.70;72.00;;;;;;5013286;28;19921;-67
2021/06/02 02:48:45;;;;;;;;;;;11.80;72.20;;;;;;5013418;28;19918;-66
2021/06/02 02:51:17;;;;;;;;;;;11.90;72.40;;;;;;5013201;28;20362;-65
2021/06/02 02:53:58;;;;;;;;;;;12.00;72.40;;;;;;5028601;28;19924;-66
2021/06/02 02:56:30;;;;;;;;;;;12.10;72.40;;;;;;5013240;28;19992;-65
2021/06/02 02:59:08;;;;;;;;;;;12.10;72.40;;;;;;5013378;28;19979;-65
2021/06/02 03:01:52;;;;;;;;;;;12.20;72.30;;;;;;5012850;28;19917;-66
2021/06/02 03:04:22;;;;;;;;;;;12.20;72.20;;;;;;5012542;28;20349;-67
2021/06/02 03:06:56;;;;;;;;;;;12.20;72.10;;;;;;5011960;28;19940;-66
2021/06/02 03:09:27;;;;;;;;;;;12.30;72.10;;;;;;5011788;28;19925;-66
2021/06/02 03:12:01;;;;;;;;;;;12.30;72.30;;;;;;5013001;28;19918;-65
2021/06/02 03:14:37;;;;;;;;;;;12.30;72.20;;;;;;5012477;28;19963;-66
2021/06/02 03:17:09;;;;;;;;;;;12.20;72.20;;;;;;5011036;28;19925;-67
2021/06/02 03:19:55;;;;;;;;;;;12.20;72.20;;;;;;5012822;28;19922;-66
2021/06/02 03:22:39;;;;;;;;;;;12.10;72.20;;;;;;5011655;28;19953;-73
2021/06/02 03:25:23;;;;;;;;;;;12.10;72.30;;;;;;5010376;28;19922;-73
2021/06/02 03:27:56;;;;;;;;;;;12.00;72.40;;;;;;5012056;28;19924;-73
2021/06/02 03:30:27;;;;;;;;;;;12.00;72.60;;;;;;5010284;28;20012;-73
2021/06/02 03:33:02;;;;;;;;;;;11.90;72.60;;;;;;5011594;28;19921;-73
2021/06/02 03:35:46;;;;;;;;;;;11.90;72.80;;;;;;5010523;28;19921;-73
2021/06/02 03:38:28;;;;;;;;;;;11.80;72.90;;;;;;5011604;28;19960;-72
2021/06/02 03:41:07;;;;;;;;;;;11.80;73.10;;;;;;5010891;28;19925;-73
2021/06/02 03:43:41;;;;;;;;;;;11.80;73.70;;;;;;5010916;28;19921;-72
2021/06/02 03:46:19;;;;;;;;;;;11.80;73.30;;;;;;5012383;28;19917;-73
2021/06/02 03:48:45;;;;;;;;;;;11.80;73.50;;;;;;5012072;28;20273;-73
2021/06/02 03:51:30;;;;;;;;;;;11.70;73.60;;;;;;5012139;28;19925;-73
2021/06/02 03:54:25;;;;;;;;;;;11.70;73.70;;;;;;4979202;28;19918;-73
2021/06/02 03:57:01;;;;;;;;;;;11.70;73.80;;;;;;5002260;28;20298;-73
2021/06/02 03:59:27;;;;;;;;;;;11.70;73.90;;;;;;5011806;28;19921;-73
2021/06/02 04:01:54;;;;;;;;;;;11.70;74.10;;;;;;5010231;28;19944;-72
2021/06/02 04:04:38;;;;;;;;;;;11.80;74.20;;;;;;5008894;28;19921;-73
2021/06/02 04:07:06;;;;;;;;;;;11.80;74.30;;;;;;5026491;28;19925;-73
2021/06/02 04:09:39;;;;;;;;;;;11.80;74.50;;;;;;5010223;28;19956;-73
2021/06/02 04:12:19;;;;;;;;;;;11.80;74.60;;;;;;5009785;28;19917;-74
2021/06/02 04:14:55;;;;;;;;;;;11.80;74.80;;;;;;5010643;28;19925;-71
2021/06/02 04:17:21;;;;;;;;;;;11.80;74.90;;;;;;5011822;28;19978;-73
2021/06/02 04:19:48;;;;;;;;;;;11.90;75.00;;;;;;5011171;28;19974;-72
2021/06/02 04:22:13;;;;;;;;;;;12.00;75.10;;;;;;5010167;28;20400;-73
2021/06/02 04:24:39;;;;;;;;;;;12.00;75.10;;;;;;5042010;28;19925;-72
2021/06/02 04:27:05;;;;;;;;;;;12.00;75.30;;;;;;5010254;28;19917;-73
2021/06/02 04:29:31;;;;;;;;;;;12.10;75.30;;;;;;5009565;28;19918;-72
2021/06/02 04:31:57;;;;;;;;;;;12.10;75.40;;;;;;5010378;28;19922;-72
2021/06/02 04:34:23;;;;;;;;;;;12.20;75.30;;;;;;5009374;28;20266;-72
2021/06/02 04:36:53;;;;;;;;;;;12.10;75.10;;;;;;5009154;28;19922;-73
2021/06/02 04:39:19;;;;;;;;;;;12.20;75.30;;;;;;5009733;28;19928;-73
2021/06/02 04:41:46;;;;;;;;;;;12.20;75.50;;;;;;5010804;28;19925;-71
2021/06/02 04:44:13;;;;;;;;;;;12.20;75.60;;;;;;5010422;28;20378;-73
2021/06/02 04:46:39;;;;;;;;;;;12.20;75.70;;;;;;5011043;28;19925;-73
2021/06/02 04:49:05;;;;;;;;;;;12.20;76.00;;;;;;5010993;28;20005;-71
2021/06/02 04:52:00;;;;;;;;;;;12.20;76.20;;;;;;5026356;28;19941;-73
2021/06/02 04:54:45;;;;;;;;;;;12.30;76.40;;;;;;5010558;28;20012;-72
2021/06/02 04:57:16;;;;;;;;;;;12.40;76.60;;;;;;5010915;28;19961;-72
2021/06/02 04:59:57;;;;;;;;;;;12.60;76.60;;;;;;5042921;28;20478;-73
2021/06/02 05:02:41;;;;;;;;;;;12.60;76.40;;;;;;5009906;28;20305;-70
2021/06/02 05:05:13;;;;;;;;;;;12.80;76.40;;;;;;5010476;28;19922;-73
2021/06/02 05:07:59;;;;;;;;;;;12.90;76.30;;;;;;5010827;28;19918;-74
2021/06/02 05:10:43;;;;;;;;;;;13.00;76.30;;;;;;4997074;28;19957;-72
2021/06/02 05:13:27;;;;;;;;;;;13.20;76.40;;;;;;5008842;28;19925;-74
2021/06/02 05:16:11;;;;;;;;;;;13.40;76.40;;;;;;5010684;28;20384;-72
2021/06/02 05:18:59;;;;;;;;;;;13.60;76.20;;;;;;5010350;28;19928;-73
2021/06/02 05:24:46;;;;;;;;;;;14.20;75.90;;;;;;5039573;28;19929;-74
2021/06/02 05:27:20;;;;;;;;;;;14.40;75.20;;;;;;5011132;28;19921;-72
2021/06/02 05:29:45;;;;;;;;;;;14.50;74.60;;;;;;5024913;28;19917;-71
2021/06/02 05:32:17;;;;;;;;;;;14.60;73.90;;;;;;5030546;28;20362;-71
2021/06/02 05:35:01;;;;;;;;;;;14.60;73.80;;;;;;5029789;28;20265;-71
2021/06/02 05:37:48;;;;;;;;;;;14.60;74.00;;;;;;5030827;28;19924;-73
2021/06/02 05:40:13;;;;;;;;;;;14.70;74.50;;;;;;5030603;28;20389;-71
2021/06/02 05:42:45;;;;;;;;;;;14.80;74.20;;;;;;5030917;28;19921;-72
2021/06/02 05:45:29;;;;;;;;;;;15.00;74.50;;;;;;5030746;28;19921;-71
2021/06/02 05:48:13;;;;;;;;;;;15.70;77.80;;;;;;5033658;28;19970;-72
2021/06/02 05:50:58;;;;;;;;;;;17.40;81.10;;;;;;5049709;28;19917;-72
2021/06/02 05:53:51;;;;;;;;;;;19.10;78.70;;;;;;5032193;28;20301;-71
2021/06/02 05:56:28;;;;;;;;;;;20.50;74.80;;;;;;5032912;28;20362;-71
2021/06/02 05:59:03;;;;;;;;;;;21.60;72.00;;;;;;5049058;28;19968;-72
2021/06/02 06:01:47;;;;;;;;;;;21.80;67.30;;;;;;5032960;28;19917;-70
2021/06/02 06:04:32;;;;;;;;;;;22.30;66.30;;;;;;5033531;28;20003;-68
2021/06/02 06:07:10;;;;;;;;;;;23.10;66.50;;;;;;5034226;28;19928;-71
2021/06/02 06:09:53;;;;;;;;;;;24.20;64.10;;;;;;5033415;28;19924;-71
2021/06/02 06:12:37;;;;;;;;;;;24.20;57.30;;;;;;5033584;28;19917;-71
2021/06/02 06:15:09;;;;;;;;;;;23.80;55.70;;;;;;5033760;28;20301;-72
2021/06/02 06:17:53;;;;;;;;;;;23.00;53.80;;;;;;5033493;28;19968;-73
2021/06/02 06:20:38;;;;;;;;;;;22.00;53.00;;;;;;5031971;28;19971;-72
2021/06/02 06:23:22;;;;;;;;;;;20.90;53.00;;;;;;5048247;28;20396;-72
2021/06/02 06:26:15;;;;;;;;;;;20.80;57.10;;;;;;5032090;28;19918;-71
2021/06/02 06:28:43;;;;;;;;;;;22.00;57.70;;;;;;5031738;28;19928;-69
2021/06/02 06:31:21;;;;;;;;;;;23.00;54.80;;;;;;5023683;28;19936;-72
2021/06/02 06:33:47;;;;;;;;;;;23.10;52.60;;;;;;5012968;28;19918;-72
2021/06/02 06:36:15;;;;;;;;;;;23.10;50.70;;;;;;5006759;28;19969;-72
2021/06/02 06:38:54;;;;;;;;;;;22.40;48.40;;;;;;5012894;28;19918;-71
2021/06/02 06:41:21;;;;;;;;;;;21.80;49.50;;;;;;5009781;28;19926;-72
2021/06/02 06:43:47;;;;;;;;;;;21.30;49.50;;;;;;5012465;28;19921;-73
2021/06/02 06:46:14;;;;;;;;;;;20.90;50.40;;;;;;5013249;28;19918;-72
2021/06/02 06:48:40;;;;;;;;;;;20.90;51.00;;;;;;5013483;28;19928;-71
2021/06/02 06:51:07;;;;;;;;;;;22.00;52.80;;;;;;5013402;28;20000;-72
2021/06/02 06:53:33;;;;;;;;;;;22.70;50.30;;;;;;5013213;28;19963;-71
2021/06/02 06:56:00;;;;;;;;;;;22.70;49.20;;;;;;5013084;28;19917;-71
2021/06/02 06:58:26;;;;;;;;;;;22.80;49.60;;;;;;5013112;28;19924;-64
2021/06/02 07:00:51;;;;;;;;;;;22.90;48.60;;;;;;5013182;28;19918;-65
2021/06/02 07:03:17;;;;;;;;;;;22.80;47.20;;;;;;5011358;28;20290;-65
2021/06/02 07:05:44;;;;;;;;;;;22.50;46.70;;;;;;5026674;28;19940;-64
2021/06/02 07:08:10;;;;;;;;;;;21.80;45.80;;;;;;5016080;28;19917;-65
2021/06/02 07:10:36;;;;;;;;;;;21.20;46.80;;;;;;5032312;28;19917;-65
2021/06/02 07:13:05;;;;;;;;;;;20.90;47.40;;;;;;5024018;28;20356;-66
2021/06/02 07:15:30;;;;;;;;;;;20.60;47.00;;;;;;5022639;28;19921;-65
2021/06/02 07:17:56;;;;;;;;;;;20.20;47.90;;;;;;5015524;28;20443;-64
2021/06/02 07:20:24;;;;;;;;;;;20.10;48.70;;;;;;5027283;28;19930;-62
2021/06/02 07:22:50;;;;;;;;;;;20.30;48.90;;;;;;5018286;28;19920;-64
2021/06/02 07:25:17;;;;;;;;;;;20.80;49.70;;;;;;5021986;28;19937;-64
2021/06/02 07:27:45;;;;;;;;;;;21.10;47.80;;;;;;5025671;28;20002;-63
2021/06/02 07:30:11;;;;;;;;;;;21.30;48.80;;;;;;5015262;28;19921;-64
2021/06/02 07:32:37;;;;;;;;;;;22.60;50.70;;;;;;5032239;28;19917;-63
2021/06/02 07:35:02;;;;;;;;;;;25.30;53.40;;;;;;5021686;28;19924;-63
2021/06/02 07:37:28;;;;;;;;;;;28.00;49.70;;;;;;5024073;28;19920;-64
2021/06/02 07:39:54;;;;;;;;;;;28.50;43.20;;;;;;5016534;28;19917;-65
2021/06/02 07:42:19;;;;;;;;;;;27.50;39.50;;;;;;5028685;28;20001;-63
2021/06/02 07:44:45;;;;;;;;;;;26.60;38.90;;;;;;5017563;28;19948;-64
2021/06/02 07:47:10;;;;;;;;;;;26.60;40.70;;;;;;5020382;28;19948;-64
2021/06/02 07:49:36;;;;;;;;;;;27.80;41.70;;;;;;5025071;28;20004;-64
2021/06/02 07:52:02;;;;;;;;;;;29.80;41.90;;;;;;5015670;28;19917;-64
2021/06/02 07:54:27;;;;;;;;;;;31.70;39.60;;;;;;5013847;28;20374;-65
2021/06/02 07:56:53;;;;;;;;;;;32.70;36.50;;;;;;5024844;28;20365;-65
2021/06/02 07:59:19;;;;;;;;;;;33.40;35.30;;;;;;5022128;28;20382;-64
2021/06/02 08:01:46;;;;;;;;;;;34.20;34.70;;;;;;5017934;28;20313;-66
2021/06/02 08:04:12;;;;;;;;;;;34.40;32.30;;;;;;5028016;28;19921;-65
2021/06/02 08:06:38;;;;;;;;;;;34.50;32.10;;;;;;5016498;28;19978;-65
2021/06/02 08:09:05;;;;;;;;;;;35.60;32.30;;;;;;5022139;28;19925;-65
2021/06/02 08:11:30;;;;;;;;;;;36.70;30.80;;;;;;5023707;28;19921;-65
2021/06/02 08:13:56;;;;;;;;;;;37.20;29.60;;;;;;5030950;28;19918;-64
2021/06/02 08:16:22;;;;;;;;;;;37.90;29.10;;;;;;5013838;28;20404;-65
2021/06/02 08:18:47;;;;;;;;;;;38.10;27.90;;;;;;5024069;28;20423;-66
2021/06/02 08:21:13;;;;;;;;;;;38.10;27.50;;;;;;5021645;28;19917;-64
2021/06/02 08:23:39;;;;;;;;;;;37.60;26.20;;;;;;5018067;28;19973;-64
2021/06/02 08:26:05;;;;;;;;;;;37.00;26.40;;;;;;5027769;28;19940;-64
2021/06/02 08:28:32;;;;;;;;;;;37.10;26.50;;;;;;5014248;28;19917;-67
2021/06/02 08:30:58;;;;;;;;;;;37.70;27.10;;;;;;5024398;28;19926;-65
2021/06/02 08:33:23;;;;;;;;;;;38.40;26.00;;;;;;5022290;28;20001;-66
2021/06/02 08:35:49;;;;;;;;;;;38.30;25.80;;;;;;5016820;28;19944;-64
2021/06/02 08:38:15;;;;;;;;;;;38.30;25.60;;;;;;5027248;28;19917;-64
2021/06/02 08:40:41;;;;;;;;;;;38.60;25.70;;;;;;5016512;28;19972;-66
2021/06/02 08:43:07;;;;;;;;;;;39.30;25.70;;;;;;5020842;28;20455;-66
2021/06/02 08:45:32;;;;;;;;;;;39.70;24.50;;;;;;5007915;28;19930;-66
2021/06/02 08:47:58;;;;;;;;;;;39.30;24.10;;;;;;5011394;28;19932;-63
2021/06/02 08:50:24;;;;;;;;;;;39.00;24.10;;;;;;5027666;28;20478;-66
2021/06/02 08:52:51;;;;;;;;;;;38.90;24.00;;;;;;5017524;28;19967;-66
2021/06/02 08:55:18;;;;;;;;;;;39.00;24.50;;;;;;5020475;28;20007;-65
2021/06/02 08:57:45;;;;;;;;;;;39.10;23.90;;;;;;5024612;28;19975;-66
2021/06/02 09:00:12;;;;;;;;;;;38.80;23.50;;;;;;5024134;28;19972;-64
2021/06/02 09:02:39;;;;;;;;;;;38.70;24.10;;;;;;5030770;28;19974;-66
2021/06/02 09:05:06;;;;;;;;;;;39.20;24.20;;;;;;5030678;28;19925;-65
2021/06/02 09:07:32;;;;;;;;;;;40.30;24.40;;;;;;5031269;28;19917;-65
2021/06/02 09:10:01;;;;;;;;;;;41.00;23.90;;;;;;5030617;28;19917;-64
2021/06/02 09:12:34;;;;;;;;;;;40.60;23.00;;;;;;5030773;28;19917;-66
2021/06/02 09:15:10;;;;;;;;;;;39.70;22.90;;;;;;5030137;28;19936;-64
2021/06/02 09:17:58;;;;;;;;;;;38.20;23.10;;;;;;5030948;28;19917;-65
2021/06/02 09:20:37;;;;;;;;;;;37.60;23.50;;;;;;5030701;28;20012;-67
2021/06/02 09:23:22;;;;;;;;;;;37.00;24.00;;;;;;5033184;28;19917;-66
2021/06/02 09:25:48;;;;;;;;;;;35.60;23.90;;;;;;5034178;28;19960;-65
2021/06/02 09:28:13;;;;;;;;;;;33.90;24.20;;;;;;5034391;28;19917;-65
2021/06/02 09:30:40;;;;;;;;;;;33.70;26.20;;;;;;5033960;28;19917;-66
2021/06/02 09:33:06;;;;;;;;;;;35.60;26.80;;;;;;5034045;28;19940;-66
2021/06/02 09:35:35;;;;;;;;;;;35.90;25.40;;;;;;5016676;28;19917;-66
2021/06/02 09:38:01;;;;;;;;;;;35.60;25.10;;;;;;5033483;28;19924;-67
2021/06/02 09:40:33;;;;;;;;;;;34.40;24.60;;;;;;5034100;28;19924;-66
2021/06/02 09:42:59;;;;;;;;;;;32.60;25.10;;;;;;5033277;28;19939;-67
2021/06/02 09:45:25;;;;;;;;;;;32.00;26.50;;;;;;5034133;28;19996;-65
2021/06/02 09:47:52;;;;;;;;;;;31.10;26.40;;;;;;5033695;28;19933;-66
2021/06/02 09:50:32;;;;;;;;;;;29.70;26.80;;;;;;5032541;28;19924;-65
2021/06/02 09:52:58;;;;;;;;;;;29.00;28.20;;;;;;5033626;28;19923;-65
2021/06/02 09:55:29;;;;;;;;;;;30.20;29.80;;;;;;5032182;28;19935;-65
2021/06/02 09:58:01;;;;;;;;;;;32.10;29.20;;;;;;5032228;28;19917;-67
2021/06/02 10:00:27;;;;;;;;;;;33.50;28.50;;;;;;5008277;28;20355;-68
2021/06/02 10:02:56;;;;;;;;;;;33.90;27.40;;;;;;5013587;28;20004;-66
2021/06/02 10:05:22;;;;;;;;;;;33.50;27.00;;;;;;5013344;28;19917;-66
2021/06/02 10:07:48;;;;;;;;;;;33.80;27.30;;;;;;5028480;28;19917;-67
2021/06/02 10:10:17;;;;;;;;;;;32.70;26.50;;;;;;5033873;28;20370;-66
2021/06/02 10:12:57;;;;;;;;;;;32.00;27.50;;;;;;5033323;28;20372;-67
2021/06/02 10:15:27;;;;;;;;;;;32.40;27.90;;;;;;5032578;28;19917;-68
2021/06/02 10:17:53;;;;;;;;;;;34.00;27.60;;;;;;5048441;28;19924;-66
2021/06/02 10:20:18;;;;;;;;;;;35.70;26.70;;;;;;5033304;28;19921;-67
2021/06/02 10:22:49;;;;;;;;;;;36.60;26.70;;;;;;5033022;28;19953;-66
2021/06/02 10:25:15;;;;;;;;;;;37.80;25.80;;;;;;5033583;28;20009;-65
2021/06/02 10:27:40;;;;;;;;;;;38.90;24.80;;;;;;5033260;28;19921;-68
2021/06/02 10:30:06;;;;;;;;;;;39.80;24.70;;;;;;5033052;28;20366;-67
2021/06/02 10:32:32;;;;;;;;;;;40.50;24.20;;;;;;5028948;28;19939;-67
2021/06/02 10:34:58;;;;;;;;;;;41.80;24.80;;;;;;5011592;28;20060;-68
2021/06/02 10:37:24;;;;;;;;;;;43.10;23.70;;;;;;5013400;28;19917;-67
2021/06/02 10:40:01;;;;;;;;;;;43.90;23.50;;;;;;5013362;28;19925;-66
2021/06/02 10:42:33;;;;;;;;;;;43.50;22.00;;;;;;5013039;28;20416;-67
2021/06/02 10:45:19;;;;;;;;;;;40.60;21.50;;;;;;5012928;28;20239;-66
2021/06/02 10:47:52;;;;;;;;;;;36.70;21.90;;;;;;5010885;28;19918;-67
2021/06/02 10:50:27;;;;;;;;;;;33.10;23.50;;;;;;5013036;28;20290;-66
2021/06/02 10:52:53;;;;;;;;;;;31.40;25.50;;;;;;5009961;28;19932;-67
2021/06/02 10:55:30;;;;;;;;;;;31.70;26.70;;;;;;5009901;28;20144;-66
2021/06/02 10:58:15;;;;;;;;;;;32.90;26.70;;;;;;5010145;28;20459;-65
2021/06/02 11:00:40;;;;;;;;;;;35.30;27.00;;;;;;5013081;28;19921;-66
2021/06/02 11:03:19;;;;;;;;;;;38.10;26.40;;;;;;5012314;28;19917;-66
2021/06/02 11:05:45;;;;;;;;;;;39.90;25.30;;;;;;5006520;28;19918;-66
2021/06/02 11:08:11;;;;;;;;;;;38.30;23.40;;;;;;5011385;28;19984;-65
2021/06/02 11:10:37;;;;;;;;;;;36.00;23.30;;;;;;5012075;28;19921;-65
2021/06/02 11:13:06;;;;;;;;;;;33.60;24.00;;;;;;5011606;28;19920;-67
2021/06/02 11:15:33;;;;;;;;;;;32.40;26.00;;;;;;5011207;28;19921;-66
2021/06/02 11:18:18;;;;;;;;;;;34.00;27.10;;;;;;5012142;28;20005;-66
2021/06/02 11:20:51;;;;;;;;;;;35.00;25.70;;;;;;5012267;28;19984;-65
2021/06/02 11:23:20;;;;;;;;;;;33.80;25.20;;;;;;5012523;28;19972;-66
2021/06/02 11:25:47;;;;;;;;;;;33.10;25.60;;;;;;5012572;28;19976;-67
2021/06/02 11:28:31;;;;;;;;;;;34.20;26.80;;;;;;5012954;28;20374;-68
2021/06/02 11:31:15;;;;;;;;;;;35.70;25.90;;;;;;5012617;28;20081;-66
2021/06/02 11:33:41;;;;;;;;;;;35.50;25.40;;;;;;5012410;28;19948;-64
2021/06/02 11:36:08;;;;;;;;;;;34.20;24.90;;;;;;5012280;28;19926;-66
2021/06/02 11:38:35;;;;;;;;;;;32.80;25.60;;;;;;5012497;28;19968;-65
2021/06/02 11:41:00;;;;;;;;;;;32.00;26.10;;;;;;5012283;28;19922;-66
2021/06/02 11:43:26;;;;;;;;;;;32.00;26.90;;;;;;5011510;28;20003;-66
2021/06/02 11:45:55;;;;;;;;;;;31.90;26.90;;;;;;5010948;28;19918;-65
2021/06/02 11:48:21;;;;;;;;;;;31.90;27.00;;;;;;5010062;28;19971;-66
2021/06/02 11:50:47;;;;;;;;;;;32.30;27.30;;;;;;5010392;28;19917;-66
2021/06/02 11:53:13;;;;;;;;;;;32.50;27.30;;;;;;5009977;28;20451;-67
2021/06/02 11:55:39;;;;;;;;;;;32.60;27.20;;;;;;5011343;28;19921;-65
2021/06/02 11:58:05;;;;;;;;;;;32.70;27.10;;;;;;5009702;28;19928;-68
2021/06/02 12:00:34;;;;;;;;;;;32.60;27.20;;;;;;5007269;28;22759;-66
2021/06/02 12:03:01;;;;;;;;;;;31.80;26.90;;;;;;5011388;28;20382;-64
2021/06/02 12:05:30;;;;;;;;;;;30.50;27.20;;;;;;5011504;28;19917;-66
2021/06/02 12:07:59;;;;;;;;;;;29.70;28.30;;;;;;5011818;28;19955;-67
2021/06/02 12:10:47;;;;;;;;;;;29.50;28.70;;;;;;5006377;28;20251;-66
2021/06/02 12:13:23;;;;;;;;;;;29.20;28.90;;;;;;5009390;28;19918;-67
2021/06/02 12:15:49;;;;;;;;;;;28.90;29.40;;;;;;5023437;28;19921;-66
2021/06/02 12:18:27;;;;;;;;;;;28.80;29.60;;;;;;5011507;28;19924;-66
2021/06/02 12:21:05;;;;;;;;;;;28.80;29.80;;;;;;5011337;28;19918;-65
2021/06/02 12:23:30;;;;;;;;;;;28.60;30.00;;;;;;5011266;28;20343;-66
2021/06/02 12:25:56;;;;;;;;;;;28.30;30.20;;;;;;5011410;28;20001;-67
2021/06/02 12:28:22;;;;;;;;;;;27.90;30.80;;;;;;5011472;28;20393;-66
2021/06/02 12:30:47;;;;;;;;;;;27.70;31.30;;;;;;5011746;28;19960;-67
2021/06/02 12:33:13;;;;;;;;;;;27.70;31.60;;;;;;5011039;28;20388;-67
2021/06/02 12:35:39;;;;;;;;;;;27.60;31.80;;;;;;5011636;28;19917;-67
2021/06/02 12:38:22;;;;;;;;;;;27.40;32.00;;;;;;5011038;28;19924;-66
2021/06/02 12:40:52;;;;;;;;;;;27.20;32.40;;;;;;5011702;28;19924;-65
2021/06/02 12:43:18;;;;;;;;;;;26.80;32.80;;;;;;5009412;28;20009;-66
2021/06/02 12:45:45;;;;;;;;;;;26.60;33.30;;;;;;5011615;28;20378;-66
2021/06/02 12:48:12;;;;;;;;;;;26.50;33.30;;;;;;5011126;28;19988;-65
2021/06/02 12:50:39;;;;;;;;;;;26.30;33.80;;;;;;5011021;28;19925;-65
2021/06/02 12:53:05;;;;;;;;;;;26.20;34.00;;;;;;5009876;28;20405;-66
2021/06/02 12:55:34;;;;;;;;;;;26.20;34.10;;;;;;5011577;28;19940;-66
2021/06/02 12:58:04;;;;;;;;;;;26.10;34.30;;;;;;5015105;28;19956;-67
2021/06/02 13:00:30;;;;;;;;;;;26.00;34.30;;;;;;5013820;28;20336;-66
2021/06/02 13:02:56;;;;;;;;;;;25.80;34.70;;;;;;5014854;28;20005;-67
2021/06/02 13:05:22;;;;;;;;;;;25.70;35.00;;;;;;5015144;28;20012;-66
2021/06/02 13:07:47;;;;;;;;;;;25.50;35.20;;;;;;5014827;28;19970;-66
2021/06/02 13:10:13;;;;;;;;;;;25.30;35.80;;;;;;5013785;28;20377;-65
2021/06/02 13:12:49;;;;;;;;;;;25.10;36.10;;;;;;5011301;28;19929;-65
2021/06/02 13:15:22;;;;;;;;;;;25.00;36.40;;;;;;5011517;28;19917;-65
2021/06/02 13:17:47;;;;;;;;;;;25.10;36.90;;;;;;5013042;28;19922;-65
2021/06/02 13:20:13;;;;;;;;;;;25.10;37.30;;;;;;5013342;28;20013;-65
2021/06/02 13:22:39;;;;;;;;;;;25.00;37.30;;;;;;5014076;28;19949;-65
2021/06/02 13:25:04;;;;;;;;;;;24.90;37.50;;;;;;5013271;28;19922;-66
2021/06/02 13:27:30;;;;;;;;;;;24.80;38.60;;;;;;5012164;28;19925;-65
2021/06/02 13:30:04;;;;;;;;;;;24.60;38.30;;;;;;5014602;28;19925;-66
2021/06/02 13:32:30;;;;;;;;;;;24.50;38.70;;;;;;5014371;28;20389;-65
2021/06/02 13:34:56;;;;;;;;;;;24.50;39.10;;;;;;5012237;28;19959;-65
2021/06/02 13:37:23;;;;;;;;;;;24.50;39.20;;;;;;5013550;28;19917;-66
2021/06/02 13:40:11;;;;;;;;;;;24.40;39.40;;;;;;5028279;28;19926;-65
2021/06/02 13:42:56;;;;;;;;;;;24.40;39.70;;;;;;5011579;28;19921;-63
2021/06/02 13:45:37;;;;;;;;;;;24.40;40.00;;;;;;5013029;28;19921;-63
2021/06/02 13:48:21;;;;;;;;;;;24.40;39.80;;;;;;5013113;28;20101;-63
2021/06/02 13:50:47;;;;;;;;;;;24.30;40.00;;;;;;5013524;28;19971;-62
2021/06/02 13:53:13;;;;;;;;;;;24.30;40.50;;;;;;5012728;28;19918;-63
2021/06/02 13:55:38;;;;;;;;;;;24.30;40.70;;;;;;5012085;28;20172;-63
2021/06/02 13:58:16;;;;;;;;;;;24.50;40.90;;;;;;5012060;28;19918;-63
2021/06/02 14:00:42;;;;;;;;;;;24.70;40.80;;;;;;5011785;28;20020;-62
2021/06/02 14:03:08;;;;;;;;;;;24.80;40.80;;;;;;5025716;28;20008;-65
2021/06/02 14:05:33;;;;;;;;;;;24.80;40.70;;;;;;5014086;28;19918;-64
2021/06/02 14:07:59;;;;;;;;;;;24.60;40.90;;;;;;5012970;28;19917;-64
2021/06/02 14:10:24;;;;;;;;;;;24.50;41.10;;;;;;5012354;28;19960;-63
2021/06/02 14:12:50;;;;;;;;;;;24.50;41.30;;;;;;5013729;28;19913;-63
2021/06/02 14:15:16;;;;;;;;;;;24.60;41.60;;;;;;4995310;28;19917;-62
2021/06/02 14:17:41;;;;;;;;;;;24.80;41.40;;;;;;5001386;28;19933;-65
2021/06/02 14:20:07;;;;;;;;;;;24.80;41.20;;;;;;5008856;28;20008;-67
2021/06/02 14:22:35;;;;;;;;;;;24.80;41.00;;;;;;5013338;28;20377;-65
2021/06/02 14:25:01;;;;;;;;;;;24.80;41.00;;;;;;5013366;28;19922;-65
2021/06/02 14:27:27;;;;;;;;;;;24.70;41.10;;;;;;5014037;28;19925;-64
2021/06/02 14:29:52;;;;;;;;;;;24.70;41.30;;;;;;5013186;28;19918;-66
2021/06/02 14:32:19;;;;;;;;;;;24.70;41.20;;;;;;5010896;28;19932;-65
2021/06/02 14:34:45;;;;;;;;;;;24.70;41.10;;;;;;5008909;28;19925;-66
2021/06/02 14:37:10;;;;;;;;;;;24.60;41.10;;;;;;5013129;28;20340;-65
2021/06/02 14:39:36;;;;;;;;;;;24.60;41.30;;;;;;5013345;28;19976;-65